createdAt,value
2018-02-06T00:01:05.094Z,16.13
2018-02-06T00:03:32.558Z,16.20
2018-02-06T00:06:00.039Z,16.83
2018-02-06T00:08:27.526Z,16.70
2018-02-06T00:10:54.986Z,15.90
2018-02-06T00:13:22.470Z,16.40
2018-02-06T00:15:49.930Z,16.67
2018-02-06T00:18:17.418Z,16.23
2018-02-06T00:20:44.878Z,17.27
2018-02-06T00:23:12.386Z,16.90
2018-02-06T00:25:39.851Z,16.77
2018-02-06T00:28:07.331Z,17.60
2018-02-06T00:30:34.806Z,17.07
2018-02-06T00:33:02.298Z,17.53
2018-02-06T00:35:29.799Z,16.77
2018-02-06T00:37:57.283Z,15.40
2018-02-06T00:40:24.746Z,16.07
2018-02-06T00:42:52.229Z,17.50
2018-02-06T00:45:19.695Z,17.27
2018-02-06T00:47:47.180Z,17.60
2018-02-06T00:50:14.653Z,16.43
2018-02-06T00:52:42.159Z,17.83
2018-02-06T00:55:09.635Z,17.73
2018-02-06T00:57:37.141Z,16.57
2018-02-06T01:00:04.619Z,16.73
2018-02-06T01:02:32.103Z,16.23
2018-02-06T01:04:59.574Z,17.17
2018-02-06T01:07:27.062Z,17.57
2018-02-06T01:09:54.535Z,16.57
2018-02-06T01:12:22.015Z,17.27
2018-02-06T01:14:49.489Z,16.60
2018-02-06T01:17:16.977Z,16.50
2018-02-06T01:19:44.443Z,16.30
2018-02-06T01:22:11.932Z,17.00
2018-02-06T01:24:39.399Z,16.90
2018-02-06T01:27:11.648Z,17.03
2018-02-06T01:29:39.121Z,16.10
2018-02-06T01:32:06.740Z,16.07
2018-02-06T01:34:34.206Z,18.00
2018-02-06T01:37:01.671Z,16.73
2018-02-06T01:39:29.166Z,16.33
2018-02-06T01:41:56.674Z,17.03
2018-02-06T01:44:24.162Z,18.10
2018-02-06T01:46:51.621Z,17.07
2018-02-06T01:49:19.152Z,17.70
2018-02-06T01:51:46.664Z,16.60
2018-02-06T01:54:14.151Z,16.47
2018-02-06T01:56:41.618Z,16.93
2018-02-06T01:59:09.102Z,17.43
2018-02-06T02:01:36.575Z,16.60
2018-02-06T02:04:04.063Z,16.47
2018-02-06T02:06:31.531Z,15.90
2018-02-06T02:08:59.021Z,15.77
2018-02-06T02:11:26.495Z,15.20
2018-02-06T02:13:53.987Z,14.90
2018-02-06T02:16:21.452Z,15.50
2018-02-06T02:18:48.947Z,16.10
2018-02-06T02:21:16.422Z,15.63
2018-02-06T02:23:43.912Z,15.00
2018-02-06T02:26:11.380Z,14.67
2018-02-06T02:28:38.858Z,15.00
2018-02-06T02:31:06.322Z,15.57
2018-02-06T02:33:33.803Z,14.60
2018-02-06T02:36:01.272Z,14.43
2018-02-06T02:38:28.760Z,15.07
2018-02-06T02:40:56.227Z,14.17
2018-02-06T04:38:58.513Z,14.30
2018-02-06T04:41:26.012Z,14.67
2018-02-06T04:43:53.487Z,15.37
2018-02-06T04:46:20.979Z,16.30
2018-02-06T04:48:48.445Z,15.80
2018-02-06T04:51:15.930Z,14.43
2018-02-06T04:53:43.399Z,14.30
2018-02-06T04:56:10.886Z,14.50
2018-02-06T04:58:38.362Z,14.17
2018-02-06T05:01:08.714Z,15.20
2018-02-06T05:03:36.188Z,14.57
2018-02-06T05:06:03.673Z,14.80
2018-02-06T05:08:31.140Z,14.70
2018-02-06T05:10:58.627Z,14.80
2018-02-06T05:13:26.090Z,14.03
2018-02-06T05:15:53.575Z,14.90
2018-02-06T05:18:21.051Z,14.90
2018-02-06T05:20:48.532Z,15.13
2018-02-06T05:23:16.009Z,14.70
2018-02-06T05:25:43.498Z,14.93
2018-02-06T05:28:10.974Z,15.60
2018-02-06T05:30:38.468Z,15.10
2018-02-06T05:33:05.932Z,15.73
2018-02-06T05:35:33.417Z,15.23
2018-02-06T05:38:00.878Z,15.47
2018-02-06T05:40:28.782Z,15.00
2018-02-06T05:42:56.263Z,14.87
2018-02-06T05:45:23.739Z,15.30
2018-02-06T05:47:51.222Z,15.00
2018-02-06T05:50:18.688Z,14.43
2018-02-06T05:52:46.179Z,14.27
2018-02-06T05:55:13.652Z,14.33
2018-02-06T05:57:41.139Z,14.97
2018-02-06T06:00:08.608Z,15.17
2018-02-06T06:02:36.104Z,14.93
2018-02-06T06:05:03.663Z,14.50
2018-02-06T06:07:31.147Z,15.13
2018-02-06T06:09:58.620Z,14.30
2018-02-06T06:12:26.112Z,14.67
2018-02-06T06:14:53.570Z,14.33
2018-02-06T06:17:21.543Z,15.60
2018-02-06T06:19:49.021Z,14.63
2018-02-06T06:22:16.516Z,14.50
2018-02-06T06:24:43.982Z,14.47
2018-02-06T06:27:11.864Z,14.53
2018-02-06T06:29:39.331Z,14.70
2018-02-06T06:32:06.810Z,13.97
2018-02-06T06:34:34.272Z,14.87
2018-02-06T06:37:01.761Z,14.67
2018-02-06T06:39:29.226Z,14.80
2018-02-06T06:41:56.721Z,15.00
2018-02-06T06:44:24.191Z,14.73
2018-02-06T06:46:51.683Z,14.77
2018-02-06T06:49:19.150Z,14.90
2018-02-06T06:51:46.635Z,14.97
2018-02-06T06:54:14.103Z,15.13
2018-02-06T06:56:41.587Z,15.43
2018-02-06T06:59:09.059Z,14.43
2018-02-06T07:01:36.543Z,15.33
2018-02-06T07:04:04.015Z,15.30
2018-02-06T07:06:31.475Z,14.40
2018-02-06T07:08:58.982Z,15.80
2018-02-06T07:11:26.453Z,14.90
2018-02-06T07:13:53.946Z,15.77
2018-02-06T07:16:21.411Z,15.10
2018-02-06T07:18:48.914Z,14.37
2018-02-06T07:21:16.379Z,14.73
2018-02-06T07:23:43.869Z,15.37
2018-02-06T07:26:11.331Z,14.10
2018-02-06T07:28:38.836Z,13.50
2018-02-06T07:31:06.300Z,14.17
2018-02-06T07:33:33.794Z,14.30
2018-02-06T07:36:01.258Z,13.97
2018-02-06T07:38:28.750Z,13.50
2018-02-06T07:40:56.231Z,13.93
2018-02-06T07:43:23.721Z,14.83
2018-02-06T07:45:51.187Z,14.00
2018-02-06T07:48:18.687Z,14.80
2018-02-06T07:50:46.151Z,13.87
2018-02-06T07:53:13.645Z,14.50
2018-02-06T07:55:42.116Z,14.23
2018-02-06T07:58:09.606Z,14.20
2018-02-06T08:00:37.075Z,13.43
2018-02-06T08:03:04.565Z,14.73
2018-02-06T08:05:32.027Z,13.43
2018-02-06T08:07:59.537Z,15.33
2018-02-06T08:10:27.007Z,14.67
2018-02-06T08:12:54.483Z,14.33
2018-02-06T08:15:22.920Z,14.00
2018-02-06T08:17:50.386Z,13.87
2018-02-06T08:20:17.867Z,14.03
2018-02-06T08:22:45.390Z,13.90
2018-02-06T08:25:12.885Z,14.93
2018-02-06T08:27:40.355Z,13.53
2018-02-06T08:30:07.842Z,14.13
2018-02-06T08:32:35.318Z,13.90
2018-02-06T08:35:02.822Z,14.13
2018-02-06T08:37:30.291Z,14.77
2018-02-06T08:39:57.777Z,13.83
2018-02-06T08:42:25.312Z,14.47
2018-02-06T08:44:52.788Z,14.83
2018-02-06T08:47:20.248Z,14.87
2018-02-06T08:49:47.751Z,14.40
2018-02-06T08:52:15.212Z,15.13
2018-02-06T08:54:42.703Z,14.60
2018-02-06T08:57:10.212Z,14.80
2018-02-06T08:59:37.706Z,16.30
2018-02-06T09:02:05.162Z,15.17
2018-02-06T09:04:32.652Z,15.03
2018-02-06T09:07:00.767Z,15.00
2018-02-06T09:09:29.194Z,16.70
2018-02-06T09:11:56.722Z,16.43
2018-02-06T09:14:24.207Z,15.77
2018-02-06T09:16:51.665Z,14.70
2018-02-06T09:19:19.154Z,15.50
2018-02-06T09:21:46.616Z,14.87
2018-02-06T09:24:14.091Z,16.20
2018-02-06T09:26:41.558Z,14.50
2018-02-06T09:29:09.036Z,15.53
2018-02-06T09:31:36.491Z,17.60
2018-02-06T09:34:03.975Z,17.73
2018-02-06T09:36:31.442Z,15.87
2018-02-06T09:38:58.907Z,16.23
2018-02-06T09:41:26.399Z,16.43
2018-02-06T09:43:53.857Z,15.33
2018-02-06T09:46:22.346Z,15.23
2018-02-06T09:48:49.803Z,16.40
2018-02-06T09:51:17.283Z,16.07
2018-02-06T09:53:44.750Z,15.17
2018-02-06T09:56:12.226Z,15.63
2018-02-06T09:58:39.678Z,14.80
2018-02-06T10:01:07.162Z,14.40
2018-02-06T10:03:34.638Z,14.73
2018-02-06T10:06:02.122Z,15.73
2018-02-06T10:08:29.583Z,14.93
2018-02-06T10:10:57.064Z,16.17
2018-02-06T10:13:24.531Z,14.90
2018-02-06T10:15:52.021Z,15.17
2018-02-06T10:18:21.454Z,15.77
2018-02-06T10:20:48.927Z,16.43
2018-02-06T10:23:16.394Z,15.90
2018-02-06T10:25:43.867Z,16.63
2018-02-06T10:28:11.366Z,15.83
2018-02-06T10:30:38.840Z,14.53
2018-02-06T10:33:06.295Z,15.10
2018-02-06T10:35:33.778Z,16.03
2018-02-06T10:38:01.238Z,14.80
2018-02-06T10:40:28.718Z,15.33
2018-02-06T10:42:56.178Z,15.57
2018-02-06T10:45:23.655Z,15.80
2018-02-06T10:47:51.116Z,15.23
2018-02-06T10:50:18.897Z,16.33
2018-02-06T10:52:46.726Z,15.50
2018-02-06T10:55:14.253Z,15.70
2018-02-06T10:57:41.731Z,16.00
2018-02-06T11:00:09.190Z,16.17
2018-02-06T11:02:36.663Z,15.03
2018-02-06T11:05:04.471Z,15.17
2018-02-06T11:07:31.942Z,16.10
2018-02-06T11:09:59.398Z,15.80
2018-02-06T11:12:26.875Z,16.37
2018-02-06T11:14:56.004Z,17.57
2018-02-06T11:17:23.973Z,17.60
2018-02-06T11:19:51.729Z,17.57
2018-02-06T11:22:19.687Z,20.98
2018-02-06T11:24:47.704Z,18.37
2018-02-06T11:27:15.250Z,18.00
2018-02-06T11:29:43.175Z,17.90
2018-02-06T11:32:12.761Z,16.83
2018-02-06T11:34:40.408Z,17.53
2018-02-06T11:37:07.878Z,18.17
2018-02-06T11:39:35.340Z,18.50
2018-02-06T11:42:02.920Z,18.93
2018-02-06T11:44:30.435Z,19.43
2018-02-06T11:46:57.919Z,17.60
2018-02-06T11:49:25.451Z,17.13
2018-02-06T11:51:52.927Z,17.67
2018-02-06T11:54:20.387Z,20.37
2018-02-06T11:56:47.867Z,17.33
2018-02-06T11:59:15.324Z,17.77
2018-02-06T12:01:42.801Z,18.53
2018-02-06T12:04:10.254Z,17.13
2018-02-06T12:06:37.735Z,18.00
2018-02-06T12:09:05.198Z,18.50
2018-02-06T12:11:32.676Z,18.83
2018-02-06T12:14:00.135Z,18.07
2018-02-06T12:16:27.886Z,18.50
2018-02-06T12:18:55.342Z,18.20
2018-02-06T12:21:22.814Z,16.93
2018-02-06T12:23:50.298Z,17.97
2018-02-06T12:26:17.761Z,18.37
2018-02-06T12:28:45.242Z,18.33
2018-02-06T12:31:12.707Z,18.27
2018-02-06T12:33:40.183Z,19.43
2018-02-06T12:36:07.659Z,17.90
2018-02-06T12:38:36.118Z,18.77
2018-02-06T12:41:03.570Z,18.87
2018-02-06T12:43:31.050Z,18.03
2018-02-06T12:45:58.506Z,18.97
2018-02-06T12:48:25.979Z,18.50
2018-02-06T12:50:53.434Z,17.63
2018-02-06T12:53:20.968Z,18.83
2018-02-06T12:55:48.422Z,18.50
2018-02-06T12:58:15.901Z,19.97
2018-02-06T13:00:43.410Z,18.70
2018-02-06T13:03:10.909Z,17.87
2018-02-06T13:05:39.217Z,19.47
2018-02-06T13:08:06.702Z,19.43
2018-02-06T13:10:34.167Z,20.07
2018-02-06T13:13:01.662Z,19.63
2018-02-06T13:15:29.136Z,19.90
2018-02-06T13:17:56.619Z,19.87
2018-02-06T13:20:24.081Z,19.07
2018-02-06T13:22:51.559Z,19.00
2018-02-06T13:25:19.019Z,20.23
2018-02-06T13:27:46.499Z,19.60
2018-02-06T13:30:13.961Z,18.60
2018-02-06T13:32:41.456Z,18.53
2018-02-06T13:35:08.911Z,17.37
2018-02-06T13:37:36.403Z,18.27
2018-02-06T13:40:03.864Z,19.03
2018-02-06T13:42:31.319Z,19.40
2018-02-06T13:44:58.791Z,20.47
2018-02-06T13:47:26.250Z,18.80
2018-02-06T13:49:53.758Z,19.70
2018-02-06T13:52:21.218Z,19.23
2018-02-06T13:54:48.717Z,21.33
2018-02-06T13:57:16.274Z,19.63
2018-02-06T13:59:43.771Z,18.80
2018-02-06T14:02:11.318Z,20.80
2018-02-06T14:04:38.842Z,19.53
2018-02-06T14:07:06.314Z,19.73
2018-02-06T14:09:33.840Z,19.57
2018-02-06T14:12:01.307Z,18.20
2018-02-06T14:14:28.791Z,18.80
2018-02-06T14:16:56.402Z,19.90
2018-02-06T14:19:23.932Z,20.87
2018-02-06T14:21:51.403Z,19.47
2018-02-06T14:24:18.883Z,20.37
2018-02-06T14:26:46.340Z,19.87
2018-02-06T14:29:13.815Z,21.67
2018-02-06T14:31:41.307Z,20.00
2018-02-06T14:34:08.807Z,21.07
2018-02-06T14:36:36.267Z,20.20
2018-02-06T14:39:03.746Z,21.00
2018-02-06T14:41:31.202Z,21.37
2018-02-06T14:43:58.696Z,22.63
2018-02-06T14:46:26.159Z,21.70
2018-02-06T14:48:53.626Z,21.53
2018-02-06T14:51:21.096Z,21.30
2018-02-06T14:53:48.583Z,23.30
2018-02-06T14:56:16.049Z,23.07
2018-02-06T14:58:43.579Z,23.33
2018-02-06T15:01:11.060Z,23.03
2018-02-06T15:03:38.546Z,22.47
2018-02-06T15:06:06.021Z,22.20
2018-02-06T15:08:33.474Z,22.73
2018-02-06T15:11:00.955Z,23.03
2018-02-06T15:13:28.416Z,22.43
2018-02-06T15:15:55.932Z,23.17
2018-02-06T15:18:23.390Z,22.90
2018-02-06T15:20:50.868Z,23.70
2018-02-06T15:23:18.330Z,24.17
2018-02-06T15:25:45.809Z,25.57
2018-02-06T15:28:13.282Z,24.27
2018-02-06T15:30:40.775Z,22.90
2018-02-06T15:33:08.270Z,22.90
2018-02-06T15:35:35.748Z,23.60
2018-02-06T15:38:03.207Z,22.80
2018-02-06T15:40:30.684Z,23.77
2018-02-06T15:42:58.144Z,24.73
2018-02-06T15:45:27.782Z,23.40
2018-02-06T15:47:55.291Z,22.90
2018-02-06T15:50:22.758Z,23.60
2018-02-06T15:52:50.224Z,23.40
2018-02-06T15:55:17.703Z,25.07
2018-02-06T15:57:45.163Z,24.37
2018-02-06T16:00:12.658Z,24.53
2018-02-06T16:02:40.119Z,24.63
2018-02-06T16:05:07.603Z,25.53
2018-02-06T16:07:35.112Z,24.73
2018-02-06T16:10:02.599Z,26.53
2018-02-06T16:12:30.082Z,27.50
2018-02-06T16:14:57.638Z,26.73
2018-02-06T16:17:25.238Z,28.83
2018-02-06T16:19:52.755Z,26.77
2018-02-06T16:22:20.262Z,27.33
2018-02-06T16:24:47.720Z,28.33
2018-02-06T16:27:15.291Z,28.23
2018-02-06T16:29:42.744Z,29.97
2018-02-06T16:32:10.215Z,28.90
2018-02-06T16:34:37.780Z,29.70
2018-02-06T16:37:05.262Z,29.87
2018-02-06T16:39:32.735Z,30.23
2018-02-06T16:42:00.260Z,29.33
2018-02-06T16:44:27.755Z,29.13
2018-02-06T16:46:55.239Z,29.40
2018-02-06T16:49:22.803Z,30.50
2018-02-06T16:51:50.523Z,29.93
2018-02-06T16:54:18.029Z,30.27
2018-02-06T16:56:45.545Z,30.40
2018-02-06T16:59:13.009Z,30.53
2018-02-06T17:01:40.499Z,30.73
2018-02-06T17:04:08.010Z,31.43
2018-02-06T17:06:35.614Z,31.23
2018-02-06T17:09:03.094Z,29.80
2018-02-06T17:11:30.822Z,29.17
2018-02-06T17:13:58.314Z,30.53
2018-02-06T17:16:25.943Z,28.77
2018-02-06T17:18:53.442Z,29.37
2018-02-06T17:21:20.919Z,27.43
2018-02-06T17:23:48.411Z,28.00
2018-02-06T17:26:15.963Z,28.13
2018-02-06T17:28:43.419Z,29.13
2018-02-06T17:31:10.899Z,30.07
2018-02-06T17:33:38.451Z,28.77
2018-02-06T17:36:05.958Z,29.87
2018-02-06T17:38:33.411Z,31.20
2018-02-06T17:41:00.891Z,28.90
2018-02-06T17:43:28.354Z,29.13
2018-02-06T17:45:55.854Z,27.57
2018-02-06T17:48:23.326Z,28.80
2018-02-06T17:50:50.790Z,30.40
2018-02-06T17:53:18.296Z,27.70
2018-02-06T17:55:45.778Z,28.87
2018-02-06T17:58:13.250Z,28.00
2018-02-06T18:00:40.731Z,28.57
2018-02-06T18:03:08.220Z,27.53
2018-02-06T18:05:35.679Z,27.50
2018-02-06T18:08:03.163Z,27.60
2018-02-06T18:10:30.640Z,29.63
2018-02-06T18:12:58.124Z,28.40
2018-02-06T18:15:25.579Z,28.73
2018-02-06T18:17:53.061Z,27.87
2018-02-06T18:20:20.531Z,27.60
2018-02-06T18:22:48.016Z,27.07
2018-02-06T18:25:15.478Z,27.57
2018-02-06T18:27:42.954Z,27.43
2018-02-06T18:30:10.415Z,27.23
2018-02-06T18:32:37.902Z,28.53
2018-02-06T18:35:05.361Z,29.10
2018-02-06T18:37:32.835Z,28.50
2018-02-06T18:40:00.296Z,28.20
2018-02-06T18:42:27.778Z,28.63
2018-02-06T18:44:55.247Z,28.27
2018-02-06T18:47:22.722Z,27.57
2018-02-06T18:49:50.182Z,27.60
2018-02-06T18:52:17.661Z,29.13
2018-02-06T18:54:45.122Z,28.33
2018-02-06T18:57:12.599Z,29.27
2018-02-06T18:59:40.061Z,29.20
2018-02-06T19:02:07.546Z,27.93
2018-02-06T19:04:35.030Z,28.93
2018-02-06T19:07:02.482Z,29.80
2018-02-06T19:09:29.954Z,29.37
2018-02-06T19:11:57.418Z,30.57
2018-02-06T19:14:24.895Z,28.37
2018-02-06T19:16:52.358Z,30.07
2018-02-06T19:19:20.185Z,30.70
2018-02-06T19:21:58.317Z,29.67
2018-02-06T19:24:25.810Z,30.33
2018-02-06T19:26:53.278Z,30.57
2018-02-06T19:29:20.756Z,29.80
2018-02-06T19:31:48.223Z,30.13
2018-02-06T19:34:15.711Z,29.97
2018-02-06T19:36:43.180Z,29.10
2018-02-06T19:39:10.663Z,28.87
2018-02-06T19:41:38.175Z,30.70
2018-02-06T19:44:06.029Z,30.80
2018-02-06T19:46:33.488Z,32.07
2018-02-06T19:49:18.794Z,30.27
2018-02-06T19:51:46.256Z,31.10
2018-02-06T19:54:13.732Z,31.20
2018-02-06T19:56:41.239Z,29.80
2018-02-06T19:59:08.710Z,31.30
2018-02-06T20:01:36.171Z,31.17
2018-02-06T20:04:03.650Z,31.53
2018-02-06T20:06:31.115Z,31.03
2018-02-06T20:08:58.757Z,32.53
2018-02-06T20:11:26.221Z,31.53
2018-02-06T20:13:53.704Z,35.43
2018-02-06T20:16:21.161Z,34.50
2018-02-06T20:18:48.639Z,33.47
2018-02-06T20:21:16.100Z,34.50
2018-02-06T20:23:48.776Z,33.87
2018-02-06T20:26:16.243Z,33.23
2018-02-06T20:28:43.727Z,34.17
2018-02-06T20:31:11.182Z,33.40
2018-02-06T20:33:38.655Z,33.10
2018-02-06T20:36:06.120Z,33.50
2018-02-06T20:38:33.595Z,33.53
2018-02-06T20:41:01.055Z,32.97
2018-02-06T20:43:28.538Z,33.23
2018-02-06T20:45:55.999Z,33.90
2018-02-06T20:48:23.463Z,32.63
2018-02-06T20:50:50.948Z,34.30
2018-02-06T20:53:18.407Z,32.73
2018-02-06T20:55:45.886Z,33.07
2018-02-06T20:58:13.351Z,32.27
2018-02-06T21:00:40.826Z,32.83
2018-02-06T21:03:08.286Z,32.93
2018-02-06T21:05:35.775Z,33.23
2018-02-06T21:08:03.240Z,33.43
2018-02-06T21:10:30.718Z,32.60
2018-02-06T21:12:58.179Z,32.63
2018-02-06T21:15:25.663Z,32.67
2018-02-06T21:17:53.119Z,31.57
2018-02-06T21:20:20.738Z,32.63
2018-02-06T21:22:48.226Z,31.47
2018-02-06T21:25:15.713Z,33.33
2018-02-06T21:27:43.176Z,31.60
2018-02-06T21:30:10.667Z,31.33
2018-02-06T21:32:38.154Z,31.43
2018-02-06T21:35:05.637Z,30.47
2018-02-06T21:37:33.103Z,31.17
2018-02-06T21:40:00.634Z,30.40
2018-02-06T21:42:28.091Z,32.23
2018-02-06T21:44:55.608Z,33.03
2018-02-06T21:47:23.087Z,32.40
2018-02-06T21:49:50.544Z,32.63
2018-02-06T21:52:18.019Z,33.37
2018-02-06T21:54:45.474Z,31.17
2018-02-06T21:57:12.955Z,32.07
2018-02-06T21:59:40.414Z,33.83
2018-02-06T22:02:07.895Z,31.63
2018-02-06T22:04:35.366Z,33.23
2018-02-06T22:07:02.866Z,32.77
2018-02-06T22:09:30.328Z,31.93
2018-02-06T22:11:57.850Z,32.57
2018-02-06T22:14:25.306Z,33.47
2018-02-06T22:16:52.826Z,33.73
2018-02-06T22:19:20.283Z,32.70
2018-02-06T22:21:47.763Z,32.47
2018-02-06T22:24:15.225Z,33.53
2018-02-06T22:26:42.701Z,32.13
2018-02-06T22:29:10.182Z,32.80
2018-02-06T22:31:37.711Z,32.33
2018-02-06T22:34:05.186Z,32.63
2018-02-06T22:36:32.638Z,33.57
2018-02-06T22:39:00.118Z,33.20
2018-02-06T22:41:27.580Z,33.37
2018-02-06T22:43:55.098Z,33.87
2018-02-06T22:46:22.556Z,33.60
2018-02-06T22:48:50.035Z,34.27
2018-02-06T22:51:17.497Z,31.27
2018-02-06T22:53:44.978Z,32.07
2018-02-06T22:56:12.438Z,32.13
2018-02-06T22:58:39.920Z,32.90
2018-02-06T23:01:07.379Z,33.50
2018-02-06T23:03:34.858Z,34.03
2018-02-06T23:06:02.310Z,35.37
2018-02-06T23:08:29.783Z,35.57
2018-02-06T23:10:57.254Z,35.20
2018-02-06T23:13:24.764Z,36.53
2018-02-06T23:15:52.242Z,35.53
2018-02-06T23:18:19.703Z,35.27
2018-02-06T23:20:47.182Z,35.87
2018-02-06T23:23:14.647Z,36.67
2018-02-06T23:25:42.139Z,36.27
2018-02-06T23:28:09.634Z,37.93
2018-02-06T23:30:37.099Z,36.73
2018-02-06T23:33:04.560Z,38.13
2018-02-06T23:35:32.039Z,39.07
2018-02-06T23:37:59.491Z,37.03
2018-02-06T23:40:26.978Z,38.80
2018-02-06T23:42:54.434Z,38.60
2018-02-06T23:45:21.927Z,37.33
2018-02-06T23:47:49.383Z,36.17
2018-02-06T23:50:16.870Z,37.80
2018-02-06T23:52:44.323Z,38.40
2018-02-06T23:55:11.799Z,37.17
2018-02-06T23:57:39.262Z,36.63
